Time;durP1;ratioP1;P1;durP2;ratioP2;P2;SDS_P1;SDS_P2;PMS_P1;PMS_P2;Temp;Humidity;BMP_temperature;BMP_pressure;BME280_temperature;BME280_humidity;BME280_pressure;Samples;Min_cycle;Max_cycle;Signal;HPM_P1;HPM_P2
2020/12/26 12:06:37;;;;;;;;;;;;;;;;;;;;;
2020/12/26 12:09:42;;;;;;;6.90;5.55;;;7.80;98.20;;;;;;6005817;23;20701;-81
2020/12/26 12:12:29;;;;;;;4.60;4.20;;;8.20;96.50;;;;;;6007922;23;20234;-82
2020/12/26 12:14:55;;;;;;;5.53;5.03;;;8.20;95.40;;;;;;6014649;23;20262;-84
2020/12/26 12:17:21;;;;;;;4.80;4.35;;;8.20;95.30;;;;;;6016089;23;20218;-84
2020/12/26 12:19:48;;;;;;;5.30;4.72;;;8.30;94.90;;;;;;6124370;23;20215;-83
2020/12/26 12:22:29;;;;;;;4.70;3.88;;;8.30;95.30;;;;;;6161903;23;20175;-84
2020/12/26 12:25:36;;;;;;;;;;;;;;;;;;;;;
2020/12/26 12:28:08;;;;;;;5.20;4.70;;;8.00;95.40;;;;;;6151456;23;20218;-83
2020/12/26 12:30:37;;;;;;;5.57;5.18;;;7.60;95.40;;;;;;6161177;23;20195;-83
2020/12/26 12:33:06;;;;;;;4.68;4.28;;;7.40;95.40;;;;;;6169355;23;20184;-84
2020/12/26 12:35:40;;;;;;;8.30;6.03;;;7.30;96.40;;;;;;6177661;23;20242;-83
2020/12/26 12:38:14;;;;;;;6.10;5.28;;;7.20;96.10;;;;;;6175960;23;20167;-82
2020/12/26 12:40:42;;;;;;;5.25;4.35;;;7.00;95.80;;;;;;6176846;23;20168;-81
2020/12/26 12:43:10;;;;;;;4.97;4.60;;;6.90;97.30;;;;;;6177649;23;20199;-81
2020/12/26 12:45:38;;;;;;;4.75;4.20;;;6.60;96.80;;;;;;6178995;23;20207;-82
2020/12/26 12:48:06;;;;;;;5.70;5.10;;;6.20;96.50;;;;;;6177907;23;20183;-81
2020/12/26 12:50:32;;;;;;;6.18;5.38;;;5.70;97.30;;;;;;6177872;23;20400;-84
2020/12/26 12:52:58;;;;;;;6.68;4.75;;;5.40;98.20;;;;;;6166796;23;20207;-84
2020/12/26 12:55:24;;;;;;;4.90;3.72;;;5.20;98.60;;;;;;6164371;23;20201;-85
2020/12/26 12:57:52;;;;;;;5.00;4.50;;;5.10;98.10;;;;;;6163864;23;20184;-84
2020/12/26 13:00:19;;;;;;;5.70;4.93;;;5.20;98.30;;;;;;6163244;23;20178;-84
2020/12/26 13:03:13;;;;;;;4.57;4.18;;;5.30;98.70;;;;;;6162155;23;20196;-84
2020/12/26 13:06:05;;;;;;;4.60;4.10;;;5.40;99.10;;;;;;6162681;23;20205;-84
2020/12/26 13:09:23;;;;;;;;;;;;;;;;;;;;;
2020/12/26 13:11:55;;;;;;;4.75;4.20;;;5.10;98.20;;;;;;6162379;23;20212;-85
2020/12/26 13:14:23;;;;;;;4.90;4.13;;;4.90;98.30;;;;;;6163956;23;20191;-85
2020/12/26 13:16:55;;;;;;;5.60;5.00;;;4.90;99.20;;;;;;6164417;23;20201;-85
2020/12/26 13:19:28;;;;;;;5.25;4.40;;;5.10;99.40;;;;;;6165014;23;20213;-85
2020/12/26 13:22:06;;;;;;;;;;;;;;;;;;;;;
2020/12/26 13:24:37;;;;;;;6.65;4.43;;;5.70;98.10;;;;;;6164710;23;20175;-85
2020/12/26 13:27:12;;;;;;;5.50;5.00;;;6.10;99.50;;;;;;6163105;23;20203;-85
2020/12/26 13:30:03;;;;;;;5.53;4.43;;;6.80;98.30;;;;;;6162011;23;20167;-83
2020/12/26 14:07:07;;;;;;;;;;;;;;;;;;;;;
2020/12/26 14:41:24;;;;;;;4.85;4.30;;;5.10;95.20;;;;;;5824536;24;20183;-83
2020/12/26 14:43:53;;;;;;;6.32;5.03;;;5.00;95.60;;;;;;5991415;23;20181;-83
2020/12/26 14:46:19;;;;;;;4.18;3.83;;;4.90;96.00;;;;;;6172119;23;20233;-82
2020/12/26 14:48:53;;;;;;;4.18;3.65;;;4.90;96.10;;;;;;6170235;23;20547;-82
2020/12/26 14:52:12;;;;;;;;;;;;;;;;;;;;;
2020/12/26 14:54:50;;;;;;;4.55;4.05;;;4.60;97.00;;;;;;6156106;23;20211;-83
2020/12/26 14:57:38;;;;;;;5.28;4.78;;;4.50;97.20;;;;;;6174016;23;20241;-82
2020/12/26 15:00:48;;;;;;;5.13;4.53;;;4.50;97.50;;;;;;6173327;23;20539;-83
2020/12/26 15:03:15;;;;;;;5.22;4.65;;;4.40;98.10;;;;;;6104557;23;20219;-84
2020/12/26 15:06:29;;;;;;;;;;;;;;;;;;;;;
2020/12/26 15:09:34;;;;;;;;;;;;;;;;;;;;;
2020/12/26 15:15:28;;;;;;;;;;;;;;;;;;;;;
2020/12/26 15:18:02;;;;;;;5.85;4.95;;;4.00;99.40;;;;;;6165734;23;20182;-83
2020/12/26 15:20:48;;;;;;;5.95;5.35;;;4.00;99.40;;;;;;6173022;23;20195;-83
2020/12/26 15:23:30;;;;;;;6.03;4.82;;;3.90;99.70;;;;;;6168364;23;20263;-83
2020/12/26 20:25:40;;;;;;;6.72;6.00;;;0.40;99.90;;;;;;6198849;23;20198;-85
2020/12/26 20:28:11;;;;;;;5.90;5.35;;;0.50;99.90;;;;;;6204079;23;20167;-85
2020/12/26 20:31:41;;;;;;;;;;;;;;;;;;;;;
2020/12/26 23:40:29;;;;;;;4.00;3.63;;;-0.50;99.90;;;;;;6135880;23;20212;-84
